NOTICE: In January 2020, USGS WaterWatch began operating in maintenance-only mode. Existing tools, features, and web data services are being fully maintained as before, but new tools and enhancements will no longer be developed. Please click here for more information or contact USGS WaterWatch if you have any questions.
Choose a state:
Locations above flood stage
(154 streamgages are currently reporting water levels above the National Weather Service defined flood stage)
USGS
station
ID
USGS station name NWS
flood
stage
(ft)
Most recent
stage
(ft)
Most recent
flow
(cfs)
Historical
peaks
(cfs)
Most recent
local
date/time
NWS
station
ID
02134170LUMBER RIVER AT LUMBERTON, NC 13 14.04 2,180 17,100 2021-03-01 13:45:00 LUMN7
02131000PEE DEE RIVER AT PEEDEE, SC 19 22.14 26,900 220,000 2021-03-01 13:00:00 PDES1
02089500NEUSE RIVER AT KINSTON, NC 14 16.80 11,200 39,000 2021-03-01 13:45:00 KINN7
02198500SAVANNAH RIVER NEAR CLYO, GA 11 13.70 21,400 270,000 2021-03-01 13:15:00 CLYG1
02135000LITTLE PEE DEE R. AT GALIVANTS FERRY, SC 9 10.29 13,600 64,700 2021-03-01 13:00:00 GALS1
02171700SANTEE RIVER NR JAMESTOWN, SC 10 16.44 38,400 103,000 2021-03-01 13:30:00 JAMS1
02225500OHOOPEE RIVER NEAR REIDSVILLE, GA 11 11.58 2,800 47,000 2021-03-01 13:00:00 REDG1
02175000EDISTO RIVER NR GIVHANS, SC 10 11.86 7,900 26,600 2021-03-01 13:30:00 GIVS1
02084000TAR RIVER AT GREENVILLE, NC 13 13.17 9,900 73,000 2021-03-01 13:00:00 PGVN7
02134900LUMBER RIVER AT NICHOLS,SC 20 20.17 7,200 41,500 2021-03-01 13:00:00 NICS1
02225000ALTAMAHA RIVER NEAR BAXLEY, GA 12.99 15.96 37,800 230,000 2021-03-01 13:45:00 BAXG1
02228000SATILLA RIVER AT ATKINSON, GA 13 15.26 11,600 110,000 2021-03-01 13:45:00 ATKG1
02224940ALTAMAHA RIVER AT US 221, NR CHARLOTTEVILLE, GA 13 14.89 34,200 210,000 2021-03-01 13:45:00 CHRG1
02110704WACCAMAW RIVER AT CONWAY MARINA AT CONWAY, SC 11 15.15 14,000 49,000 2021-03-01 13:15:00 CNWS1
02243960OCKLAWAHA R AT RODMAN DAM NEAR ORANGE SPRINGS, FL 5 5.14 1,990 10,600 2021-03-01 13:00:00 RODF1
08013000Calcasieu River nr Glenmora, LA 12 12.65 1,730 59,900 2021-03-01 12:30:00 GLML1
02202500OGEECHEE RIVER NEAR EDEN, GA 11 12.88 9,380 78,000 2021-03-01 13:15:00 EDEG1
02081000ROANOKE RIVER NEAR SCOTLAND NECK, NC 28 29.89

 

260,000 2021-03-01 13:00:00 SCON7
02226000ALTAMAHA RIVER AT DOCTORTOWN, GA 12 12.33 46,000 300,000 2021-03-01 13:00:00 DCTG1
02110725AIW AT HIGHWAY 544 AT SOCASTEE, SC 15 17.75

 

  2021-03-01 13:30:00 SOCS1
02322500SANTA FE RIVER NEAR FORT WHITE, FLA. 2.94 3.05 2,250 17,000 2021-03-01 13:45:00 FWHF1
02317620ALAPAHA RIVER NEAR JENNINGS FLA 80.70 84.19 9,410 26,000 2021-03-01 13:00:00 JNAF1
02492600Pearl River at Pearl River, LA 14 14.00

 

230,000 2021-03-01 12:00:00 PERL1
02317500ALAPAHA RIVER AT STATENVILLE, GA 23.90 25.22 7,880 33,400 2021-03-01 13:45:00 STNG1
02226160ALTAMAHA RIVER NEAR EVERETT CITY, GA 13 13.68 49,000 300,000 2021-03-01 13:45:00 EVRG1
07348700Bayou Dorcheat near Springhill, LA 11 16.63 10,000 36,700 2021-03-01 12:00:00 SPHL1
02081054ROANOKE RIVER AT WILLIAMSTON, NC 12 12.30

 

2021-03-01 13:00:00 WLLN7
02319394WITHLACOOCHEE RIVER NR LEE, FLA 49.84 50.59 Eqp 53,500 2021-03-01 13:00:00 WTHF1
02322700ICHETUCKNEE R @ HWY27 NR HILDRETH, FL 19.76 21.66 362 715 2021-03-01 11:15:00 ICSF1
02080500ROANOKE RIVER AT ROANOKE RAPIDS, NC 9 10.56 32,800 261,000 2021-03-01 13:45:00 RRDN7
07289350BIG BLACK RIVER AT WEST, MS 15 19.21 8,480 71,200 2021-03-01 12:45:00 WSTM6
07343200Sulphur Rv nr Talco, TX 20 23.19 8,320 79,800 2021-03-01 12:45:00 TLCT2
02320500SUWANNEE RIVER AT BRANFORD, FLA. 20.94 21.74 22,000 83,900 2021-03-01 13:00:00 BFDF1
02320000SUWANNEE RIVER AT LURAVILLE, FLA. 35.67 36.20 23,300 90,000 2021-03-01 13:00:00 LURF1
02087570NEUSE RIVER AT SMITHFIELD, NC 15 17.29

 

19,900 2021-03-01 13:15:00 SMFN7
02322800SANTA FE RIVER NR HILDRETH FLA 17.28 17.95 2,080 15,700 2021-03-01 13:00:00 FTWF1
02323000SUWANNEE RIVER NEAR BELL, FLORIDA 17.70 18.24 22,200 82,300 2021-03-01 13:00:00 RCKF1
07362000Ouachita River at Camden, AR 26 33.54 38,500 243,000 2021-03-01 12:45:00 CAMA4
02087500NEUSE RIVER NEAR CLAYTON, NC 9 9.20 5,630 22,900 2021-03-01 13:15:00 CLYN7
07343500White Oak Ck nr Talco, TX 16 17.19 3,270 48,000 2021-03-01 12:30:00 WOCT2
07288500BIG SUNFLOWER RIVER AT SUNFLOWER, MS 21 23.50 5,380 15,000 2021-03-01 12:00:00 SUNM6
02439400BUTTAHATCHEE RIVER NR ABERDEEN, MS 13 15.93 10,400 80,000 2021-03-01 12:30:00 ABDM6
03219500Scioto River near Prospect OH 9 11.00 5,480 27,000 2021-03-01 13:00:00 PRGO1
03335500WABASH RIVER AT LAFAYETTE, IN 11 15.26 28,100 190,000 2021-03-01 13:30:00 LAFI3
03281500SOUTH FORK KENTUCKY RIVER AT BOONEVILLE, KY 27 44.13 61,600 66,100 2021-03-01 13:00:00 BOOK2
02105500CAPE FEAR R AT WILM O HUSKE LOCK NR TARHEEL, NC 9.91 12.98 20,300 87,400 2021-03-01 13:00:00 STPN7
05469000HENDERSON CREEK NEAR OQUAWKA, IL 21.5 23.42 Ice 34,600 2021-03-01 12:30:00 OQUI2
03282000KENTUCKY RIVER AT LOCK 14 AT HEIDELBERG, KY 20 33.24 Rat 120,000 2021-03-01 13:45:00 HLDK2
05466500EDWARDS RIVER NEAR NEW BOSTON, IL 17 21.20 Ice 18,000 2021-03-01 12:30:00 NWBI2
03068000SHAVERS FORK AT BEMIS, WV 5 8.44

 

14,600 2021-03-01 13:50:00 LEPL1
03282120KENTUCKY RIVER AT LOCK 12 NEAR IRVINE, KY 21 37.05 66,600 58,600 2021-03-01 12:15:00 RAVK2
03379500LITTLE WABASH RIVER BELOW CLAY CITY, IL 18 20.55 6,140 47,000 2021-03-01 12:45:00 CLAI2
03340500WABASH RIVER AT MONTEZUMA, IN 14 18.78 33,000 230,000 2021-03-01 13:45:00 MTZI3
03322900WABASH RIVER AT LINN GROVE, IN 11 11.35 2,690 14,500 2021-03-01 13:45:00 LYNI3
03362000YOUNGS CREEK NEAR EDINBURGH, IN 7 8.43 1,680 20,500 2021-03-01 13:15:00 AMTI3
03336000WABASH RIVER AT COVINGTON, IN 16 17.90 24,100 200,000 2021-03-01 13:45:00 CVGI3
05467000POPE CREEK NEAR KEITHSBURG, IL 24 26.87 Ice 9,640 2021-03-01 12:30:00 PCKI2
08018500Sabine Rv nr Mineola, TX 14 15.19 2,390 76,000 2021-03-01 12:15:00 MLAT2
03374000WHITE RIVER AT PETERSBURG, IN 16 19.15 39,300 235,000 2021-03-01 13:30:00 PTRI3
03216500LITTLE SANDY RIVER AT GRAYSON, KY 21 27.90 11,900 24,500 2021-03-01 13:00:00 GYNK2
03251900STONER CREEK AT WATER PLANT AT PARIS, KY 18 21.12 8,310 12,300 2021-03-01 13:15:00 PRSK2
03360500WHITE RIVER AT NEWBERRY, IN 13 15.68 24,400 138,000 2021-03-01 13:30:00 NWBI3
03378635LITTLE WABASH RIVER NEAR EFFINGHAM, IL 16 16.14 4,320 31,500 2021-03-01 12:30:00 EFFI2
01604500PATTERSON CREEK NEAR HEADSVILLE, WV 9 11.43 10,400 16,000 2021-03-01 13:30:00 HDSW2
03250500LICKING RIVER AT BLUE LICK SPRINGS, KY 25 32.55 22,400 35,900 2021-03-01 13:00:00 BLSK2
03289500ELKHORN CREEK NEAR FRANKFORT, KY 10 11.37 12,300 35,900 2021-03-01 13:15:00 PKMK2
03363400FLATROCK RIVER NR RUSHVILLE, IN 11 11.99

 

  2021-03-01 13:30:00 RSHI3
03360730WHITE RIVER NEAR EDWARDSPORT, IN 15 18.18 21,100 61,400 2021-03-01 13:30:00 EDWI3
03373980WHITE RIVER ABOVE PETERSBURG, IN 16 18.96 1,500   2021-03-01 13:30:00 PETI3
03114431MIDDLE ISLAND CREEK AT HWY 18 NR MIDDLEBOURNE, WV 16 17.88 13,000   2021-03-01 13:55:00 MBRW2
03284500KENTUCKY RIVER AT LOCK 8 NEAR CAMP NELSON, KY 30 39.51 77,800 103,000 2021-03-01 13:15:00 CPNK2
03315500GREEN RIVER AT LOCK 4 AT WOODBURY, KY 26 35.26

 

205,000 2021-03-01 12:00:00 WDHK2
03341500WABASH RIVER AT TERRE HAUTE, IN 16.5 18.69 32,000 245,000 2021-03-01 13:30:00 TERI3
01401750Millstone River at Griggstown NJ 10 11.25

 

2021-03-01 13:45:00 GTNN4
01560000Dunning Creek at Belden, PA 8 8.54 3,430 19,400 2021-03-01 13:00:00 BELP1
03342000WABASH RIVER AT RIVERTON, IN 15 16.95 30,700 250,000 2021-03-01 13:00:00 RVTI3
03365500EAST FORK WHITE RIVER AT SEYMOUR, IN 12 16.93 25,800 120,000 2021-03-01 12:45:00 SERI3
03159540Shade River near Chester OH 17 21.47 4,720 15,600 2021-03-01 13:30:00 SRCO1
03283500RED RIVER AT CLAY CITY, KY 17 25.21 26,000 28,800 2021-03-01 13:15:00 CYCK2
07025400NORTH FORK OBION RIVER NEAR MARTIN, TN (CE) 20 20.55 11,300 30,300 2021-03-01 12:00:00 NOMT1
03284000KENTUCKY RIVER AT LOCK 10 NEAR WINCHESTER, KY 26 31.27 Rat 101,000 2021-03-01 13:30:00 FODK2
03114500MIDDLE ISLAND CREEK AT LITTLE, WV 14 16.39 13,700 30,000 2021-03-01 13:30:00 LTLW2
02011470BACK CREEK AT SUNRISE, VA 8 8.62 3,100 5,820 2021-03-01 13:30:00 SUNV2
03082500Youghiogheny River at Connellsville, PA 12 14.00 34,500 103,000 2021-03-01 13:15:00 CLLP1
03139000Killbuck Creek at Killbuck OH 15 15.79 2,250 47,500 2021-03-01 13:00:00 KILO1
03316500GREEN RIVER AT PARADISE, KY 17.00 22.66 39,900 107,000 2021-03-01 12:15:00 PRDK2
03319000ROUGH RIVER NEAR DUNDEE, KY 25 27.07

 

22,200 2021-03-01 12:45:00 DUNK2
03346500EMBARRAS RIVER AT LAWRENCEVILLE, IL 30 31.65 12,300 47,500 2021-03-01 12:45:00 LAWI2
03203647ISLAND CREEK AT ROUTE 44 AT LOGAN, WV 10 10.43

 

  2021-03-01 13:50:00 ORMW2
03357000WHITE RIVER AT SPENCER, IN 14 15.05 17,000 100,000 2021-03-01 13:30:00 SPNI3
03204294MUD RIVER AT HAMLIN, WV 13 14.83

 

  2021-03-01 13:55:00 MYRW2
03248300LICKING RIVER BELOW MASON FORK NR SALYERSVILLE, KY 17 20.19 5,480 3,570 2021-03-01 13:15:00 SAYK2
03308500GREEN RIVER AT MUNFORDVILLE, KY 28 35.40 28,600 76,800 2021-03-01 12:00:00 MFVK2
03374100WHITE RIVER AT HAZLETON, IN 16 17.10 31,400 138,000 2021-03-01 13:45:00 HZNI3
07077500Cache River at Patterson, AR 9 10.21

 

24,500 2021-03-01 12:00:00 PTTA4
03212500LEVISA FORK AT PAINTSVILLE, KY 35 39.70 36,900 69,700 2021-03-01 13:45:00 PTVK2
04181500ST. MARYS RIVER AT DECATUR, IN 17 17.07 3,710 15,000 2021-03-01 13:00:00 DCRI3
13116500MEDICINE LODGE CREEK NR SMALL ID 7.7 8.97 Ice 481 2021-03-01 11:15:00 MEDI1
03280000NORTH FORK KENTUCKY RIVER AT JACKSON, KY 29 36.94 40,800 53,500 2021-03-01 09:45:00 JKNK2
03237020Scioto River at Piketon OH 20 21.62 41,300 78,700 2021-03-01 13:00:00 PKTO1
03286500KENTUCKY RIVER AT LOCK 7 AT HIGHBRIDGE, KY 30 34.82 86,600 106,000 2021-03-01 13:15:00 HIBK2
03290500KENTUCKY RIVER AT LOCK 2 AT LOCKPORT, KY 33 37.44 78,800 123,000 2021-03-01 13:30:00 LPTK2
03190000MEADOW RIVER AT NALLEN, WV 15 16.21 11,000 39,300 2021-03-01 13:15:00 NALW2
03198500BIG COAL RIVER AT ASHFORD, WV 17 23.31 20,700 35,800 2021-03-01 13:45:00 ASHW2
03212980DRY FORK AT BEARTOWN, WV 10 12.22 10,100 15,900 2021-03-01 13:00:00 BRSW2
03363000DRIFTWOOD RIVER NEAR EDINBURGH, IN 11 11.80 8,880 40,500 2021-03-01 13:30:00 DREI3
03436100RED RIVER AT PORT ROYAL, TN 30 37.39 30,400 63,200 2021-03-01 12:30:00 PORT1
03189863MEADOW RIVER NEAR HINES, WV 14 16.64

 

  2021-03-01 13:50:00 HNEW2
01611500CACAPON RIVER NEAR GREAT CACAPON, WV 9 10.40 9,430 87,600 2021-03-01 13:30:00 GCPW2
02011400JACKSON RIVER NEAR BACOVA, VA 10 10.39 3,730 30,000 2021-03-01 13:30:00 BCVV2
03371500EAST FORK WHITE RIVER NEAR BEDFORD, IN 20 20.42 17,600 155,000 2021-03-01 13:30:00 BEDI3
07030240LOOSAHATCHIE RIVER NEAR ARLINGTON, TN 20 20.20 9,540 29,600 2021-03-01 12:15:00 ARLT1
03201000POCATALICO RIVER AT SISSONVILLE, WV 30 31.35 9,100 15,500 2021-03-01 13:00:00 SISW2
03204000GUYANDOTTE RIVER AT BRANCHLAND, WV 30 34.01

 

44,500 2021-03-01 13:30:00 BRAW2
03213700TUG FORK AT WILLIAMSON, WV 27 36.60 34,200 94,000 2021-03-01 13:00:00 WILW2
03214500TUG FORK AT KERMIT, WV 38 44.28 55,500 107,000 2021-03-01 13:00:00 KRMW2
03277500NORTH FORK KENTUCKY RIVER AT HAZARD, KY 20 24.77 18,200 47,800 2021-03-01 13:30:00 HAZK2
03362500SUGAR CREEK NEAR EDINBURGH, IN 10 10.52 5,220 39,900 2021-03-01 13:00:00 EDNI3
02433500TOMBIGBEE RIVER AT BIGBEE, MS 14 15.40 9,590 112,000 2021-03-01 12:30:00 BGBM6
03072655Monongahela River near Masontown, PA 21 21.68 106,000 146,000 2021-03-01 13:45:00 GYLP1
03196800ELK RIVER AT CLAY, WV 18 18.69

 

63,100 2021-03-01 13:00:00 CLYW2
03314000DRAKES CREEK NEAR ALVATON, KY 24 30.49 27,800 113,000 2021-03-01 11:45:00 ALVK2
07346045Black Cypress Bayou at Jefferson, TX 13 13.94 1,730 12,400 2021-03-01 12:00:00 JEFT2
03115400Little Muskingum River at Bloomfield OH 16 16.35 4,030 41,600 2021-03-01 13:45:00 LNBO1
03197000ELK RIVER AT QUEEN SHOALS, WV 19 22.63 37,000 82,700 2021-03-01 13:00:00 QUSW2
03202750CLEAR FORK AT CLEAR FORK, WV 11 12.27 6,320 10,700 2021-03-01 13:30:00 CLFW2
03304300OHIO RIVER AT NEWBURGH LOCK AND DAM, IN 38 39.22

 

2021-03-01 12:00:00 NBGI3
03063000Monongahela R L&D8 (Lower Pool) @ Point Marion, PA 26 26.87

 

90,400 2021-03-01 13:15:00 PMRP1
03093000Eagle Creek at Phalanx Station OH 9.5 9.88 991 8,150 2021-03-01 13:00:00 PHAO1
03200500COAL RIVER AT TORNADO, WV 25 28.06 30,000 39,000 2021-03-01 13:15:00 TORW2
03404000CUMBERLAND RIVER AT WILLIAMSBURG, KY 21 22.60 23,600 49,700 2021-03-01 13:00:00 WLBK2
08020700Rabbit Ck at Kilgore, TX 10 10.73 462 17,800 2021-03-01 12:45:00 KLGT2
03182600GREENBRIER RIVER AT RENICK, WV 17 17.36

 

  2021-03-01 13:50:00 RNKW2
01608500SOUTH BRANCH POTOMAC RIVER NEAR SPRINGFIELD, WV 15 15.34 22,400 240,000 2021-03-01 13:30:00 SPRW2
03183500GREENBRIER RIVER AT ALDERSON, WV 14 16.43 47,300 94,000 2021-03-01 13:45:00 ALDW2
03287500KENTUCKY RIVER AT LOCK 4 AT FRANKFORT, KY 31 32.66 80,000 118,000 2021-03-01 13:30:00 FFTK2
07349000Bayou Dorcheat near Minden, LA 14 14.91

 

44,800 2021-03-01 12:00:00 MNEL1
03075000Monongahela River at Charleroi, PA 28 29.92

 

158,000 2021-03-01 13:00:00 CHRP1
03075070Monongahela River at Elizabeth, PA 20 20.95 88,700 178,000 2021-03-01 13:15:00 ELZP1
03177710BLUESTONE RIVER AT FALLS MILLS, VA 7 7.20 1,010 1,560 2021-03-01 13:45:00 BRVV2
03217000TYGARTS CREEK NEAR GREENUP, KY 20 20.34 9,800 37,000 2021-03-01 13:45:00 TYGK2
03230700Scioto River at Circleville OH 15 15.39 23,100 53,500 2021-03-01 13:45:00 CRCO1
03286000HERRINGTON LAKE NEAR BURGIN, KY 750 752.54

 

  2021-03-01 13:45:00 DIXK2
03301500ROLLING FORK NEAR BOSTON, KY 35 36.06 21,000 69,800 2021-03-01 13:30:00 BSNK2
02437000TOMBIGBEE RIVER NR AMORY, MS 20 20.88 19,000 162,000 2021-03-01 12:15:00 AMYM6
03080000Laurel Hill Creek at Ursina, PA 5 6.34 5,860 10,900 2021-03-01 13:30:00 URSP1
03178000BLUESTONE R NR SPANISHBURG, WV 12 13.02

 

6,920 2021-03-01 13:55:00 SPNW2
03314500BARREN RIVER AT BOWLING GREEN, KY 28 29.45 23,000 85,000 2021-03-01 12:45:00 BWGK2
07349650(COE) Byu Bodcau Lake nr Shreveport, LA (Landside) 172 172.23

 

2021-03-01 12:00:00 LBBL1
09217900BLACKS FORK NEAR ROBERTSON, WY 5 6.99 Ice 3,780 2021-03-01 11:00:00 BNRU1
13120500BIG LOST RIVER AT HOWELL RANCH NR CHILLY ID 4 6.44 Ice 5,010 2021-03-01 08:45:00 HWRI1
03209500LEVISA FORK AT PIKEVILLE, KY 35 35.53 22,400 85,500 2021-03-01 13:00:00 PKYK2
03524000CLINCH RIVER AT CLEVELAND, VA 14 14.36 11,900 34,500 2021-03-01 13:45:00 CLVV2
05355250MISSISSIPPI RIVER AT RED WING, MN 14 15.23 Ssn 163,000 2021-03-01 11:00:00 REDM5